sensor_id;sensor_type;location;lat;lon;timestamp;temperature;humidity
1524;DHT22;755;53.658;10.118;2022-09-21T00:02:32;6.90;99.90
1524;DHT22;755;53.658;10.118;2022-09-21T00:12:34;6.80;99.90
1524;DHT22;755;53.658;10.118;2022-09-21T00:22:39;6.90;99.90
1524;DHT22;755;53.658;10.118;2022-09-21T00:32:42;6.60;99.90
1524;DHT22;755;53.658;10.118;2022-09-21T00:42:45;6.60;99.90
1524;DHT22;755;53.658;10.118;2022-09-21T00:52:50;6.50;99.90
1524;DHT22;755;53.658;10.118;2022-09-21T01:02:54;6.40;99.90
1524;DHT22;755;53.658;10.118;2022-09-21T01:13:09;6.30;99.90
1524;DHT22;755;53.658;10.118;2022-09-21T01:33:51;6.20;99.90
1524;DHT22;755;53.658;10.118;2022-09-21T01:44:02;6.10;99.90
1524;DHT22;755;53.658;10.118;2022-09-21T01:54:12;6.00;99.90
1524;DHT22;755;53.658;10.118;2022-09-21T02:04:15;5.90;99.90
1524;DHT22;755;53.658;10.118;2022-09-21T02:14:21;5.90;99.90
1524;DHT22;755;53.658;10.118;2022-09-21T02:24:32;5.70;99.90
1524;DHT22;755;53.658;10.118;2022-09-21T02:34:42;5.80;99.90
1524;DHT22;755;53.658;10.118;2022-09-21T02:44:51;5.80;99.90
1524;DHT22;755;53.658;10.118;2022-09-21T02:54:57;5.70;99.90
1524;DHT22;755;53.658;10.118;2022-09-21T03:05:05;5.60;99.90
1524;DHT22;755;53.658;10.118;2022-09-21T03:15:09;5.50;99.90
1524;DHT22;755;53.658;10.118;2022-09-21T03:25:12;5.50;99.90
1524;DHT22;755;53.658;10.118;2022-09-21T03:35:16;5.50;99.90
1524;DHT22;755;53.658;10.118;2022-09-21T03:45:20;5.30;99.90
1524;DHT22;755;53.658;10.118;2022-09-21T03:55:24;5.40;99.90
1524;DHT22;755;53.658;10.118;2022-09-21T04:05:27;5.30;99.90
1524;DHT22;755;53.658;10.118;2022-09-21T04:15:31;5.30;99.90
1524;DHT22;755;53.658;10.118;2022-09-21T04:25:37;5.10;99.90
1524;DHT22;755;53.658;10.118;2022-09-21T04:35:41;5.00;99.90
1524;DHT22;755;53.658;10.118;2022-09-21T04:45:44;5.00;99.90
1524;DHT22;755;53.658;10.118;2022-09-21T04:55:48;4.90;99.90
1524;DHT22;755;53.658;10.118;2022-09-21T05:05:52;4.80;99.90
1524;DHT22;755;53.658;10.118;2022-09-21T05:15:56;4.90;99.90
1524;DHT22;755;53.658;10.118;2022-09-21T05:26:03;4.80;99.90
1524;DHT22;755;53.658;10.118;2022-09-21T05:36:15;4.90;99.90
1524;DHT22;755;53.658;10.118;2022-09-21T05:46:34;5.00;99.90
1524;DHT22;755;53.658;10.118;2022-09-21T05:56:48;5.00;99.90
1524;DHT22;755;53.658;10.118;2022-09-21T06:06:53;5.20;99.90
1524;DHT22;755;53.658;10.118;2022-09-21T06:16:56;5.40;99.90
1524;DHT22;755;53.658;10.118;2022-09-21T06:26:58;5.50;99.90
1524;DHT22;755;53.658;10.118;2022-09-21T06:37:01;5.80;99.90
1524;DHT22;755;53.658;10.118;2022-09-21T06:47:03;6.10;99.90
1524;DHT22;755;53.658;10.118;2022-09-21T06:57:06;6.30;99.90
1524;DHT22;755;53.658;10.118;2022-09-21T07:07:08;6.70;99.90
1524;DHT22;755;53.658;10.118;2022-09-21T07:17:12;7.20;99.90
1524;DHT22;755;53.658;10.118;2022-09-21T07:27:14;8.00;99.90
1524;DHT22;755;53.658;10.118;2022-09-21T07:37:17;9.00;99.90
1524;DHT22;755;53.658;10.118;2022-09-21T07:47:19;9.00;99.90
1524;DHT22;755;53.658;10.118;2022-09-21T07:57:23;10.10;99.90
1524;DHT22;755;53.658;10.118;2022-09-21T08:07:42;10.30;99.90
1524;DHT22;755;53.658;10.118;2022-09-21T08:17:45;10.40;99.90
1524;DHT22;755;53.658;10.118;2022-09-21T08:27:48;13.70;99.90
1524;DHT22;755;53.658;10.118;2022-09-21T08:37:53;15.60;1.00
1524;DHT22;755;53.658;10.118;2022-09-21T08:47:57;15.90;99.90
1524;DHT22;755;53.658;10.118;2022-09-21T08:58:02;16.40;1.00
1524;DHT22;755;53.658;10.118;2022-09-21T09:08:36;14.80;99.90
1524;DHT22;755;53.658;10.118;2022-09-21T09:18:46;15.00;99.90
1524;DHT22;755;53.658;10.118;2022-09-21T09:28:52;15.20;1.00
1524;DHT22;755;53.658;10.118;2022-09-21T09:38:59;15.10;1.00
1524;DHT22;755;53.658;10.118;2022-09-21T09:49:12;15.10;99.90
1524;DHT22;755;53.658;10.118;2022-09-21T09:59:25;16.60;99.90
1524;DHT22;755;53.658;10.118;2022-09-21T10:09:31;17.40;99.90
1524;DHT22;755;53.658;10.118;2022-09-21T10:19:35;16.50;99.90
1524;DHT22;755;53.658;10.118;2022-09-21T10:29:40;15.50;12.30
1524;DHT22;755;53.658;10.118;2022-09-21T10:39:46;15.30;1.00
1524;DHT22;755;53.658;10.118;2022-09-21T10:49:51;15.20;1.00
1524;DHT22;755;53.658;10.118;2022-09-21T10:59:55;15.50;99.90
1524;DHT22;755;53.658;10.118;2022-09-21T11:10:02;15.30;99.90
1524;DHT22;755;53.658;10.118;2022-09-21T11:20:19;15.30;99.90
1524;DHT22;755;53.658;10.118;2022-09-21T11:30:22;15.20;99.90
1524;DHT22;755;53.658;10.118;2022-09-21T11:40:48;15.10;99.90
1524;DHT22;755;53.658;10.118;2022-09-21T11:51:00;15.30;99.90
1524;DHT22;755;53.658;10.118;2022-09-21T12:01:11;15.30;1.00
1524;DHT22;755;53.658;10.118;2022-09-21T12:11:27;15.00;99.90
1524;DHT22;755;53.658;10.118;2022-09-21T12:21:35;15.30;99.90
1524;DHT22;755;53.658;10.118;2022-09-21T12:31:38;15.90;99.90
1524;DHT22;755;53.658;10.118;2022-09-21T12:41:50;16.00;99.90
1524;DHT22;755;53.658;10.118;2022-09-21T12:51:56;15.90;99.90
1524;DHT22;755;53.658;10.118;2022-09-21T13:02:11;15.50;99.90
1524;DHT22;755;53.658;10.118;2022-09-21T13:12:19;15.10;99.90
1524;DHT22;755;53.658;10.118;2022-09-21T13:22:24;15.40;99.90
1524;DHT22;755;53.658;10.118;2022-09-21T13:32:50;15.50;99.90
1524;DHT22;755;53.658;10.118;2022-09-21T13:42:53;15.60;99.90
1524;DHT22;755;53.658;10.118;2022-09-21T13:53:18;15.50;99.90
1524;DHT22;755;53.658;10.118;2022-09-21T14:03:24;15.40;57.10
1524;DHT22;755;53.658;10.118;2022-09-21T14:13:32;14.90;99.90
1524;DHT22;755;53.658;10.118;2022-09-21T14:23:36;14.80;99.90
1524;DHT22;755;53.658;10.118;2022-09-21T14:33:43;14.90;99.90
1524;DHT22;755;53.658;10.118;2022-09-21T14:43:50;15.10;99.90
1524;DHT22;755;53.658;10.118;2022-09-21T14:54:02;15.60;18.70
1524;DHT22;755;53.658;10.118;2022-09-21T15:04:23;15.70;91.00
1524;DHT22;755;53.658;10.118;2022-09-21T15:14:33;15.50;99.90
1524;DHT22;755;53.658;10.118;2022-09-21T15:24:48;15.30;99.90
1524;DHT22;755;53.658;10.118;2022-09-21T15:34:57;15.30;99.90
1524;DHT22;755;53.658;10.118;2022-09-21T15:45:13;15.10;28.70
1524;DHT22;755;53.658;10.118;2022-09-21T15:55:16;15.10;99.90
1524;DHT22;755;53.658;10.118;2022-09-21T16:05:22;15.00;99.90
1524;DHT22;755;53.658;10.118;2022-09-21T16:15:26;14.80;99.90
1524;DHT22;755;53.658;10.118;2022-09-21T16:25:34;14.60;99.90
1524;DHT22;755;53.658;10.118;2022-09-21T16:35:38;14.40;99.90
1524;DHT22;755;53.658;10.118;2022-09-21T16:45:41;14.10;1.00
1524;DHT22;755;53.658;10.118;2022-09-21T16:55:44;13.90;83.30
1524;DHT22;755;53.658;10.118;2022-09-21T17:05:49;13.60;99.90
1524;DHT22;755;53.658;10.118;2022-09-21T17:15:51;13.30;99.90
1524;DHT22;755;53.658;10.118;2022-09-21T17:25:54;13.00;1.00
1524;DHT22;755;53.658;10.118;2022-09-21T17:35:56;12.50;1.00
1524;DHT22;755;53.658;10.118;2022-09-21T17:46:05;12.30;99.90
1524;DHT22;755;53.658;10.118;2022-09-21T17:56:16;11.90;99.90
1524;DHT22;755;53.658;10.118;2022-09-21T18:06:27;11.80;99.90
1524;DHT22;755;53.658;10.118;2022-09-21T18:16:36;11.80;99.90
1524;DHT22;755;53.658;10.118;2022-09-21T18:26:42;11.70;99.90
1524;DHT22;755;53.658;10.118;2022-09-21T18:36:49;11.50;99.90
1524;DHT22;755;53.658;10.118;2022-09-21T18:47:02;11.40;99.90
1524;DHT22;755;53.658;10.118;2022-09-21T18:57:10;11.30;99.90
1524;DHT22;755;53.658;10.118;2022-09-21T19:07:19;11.00;99.90
1524;DHT22;755;53.658;10.118;2022-09-21T19:17:32;10.80;99.90
1524;DHT22;755;53.658;10.118;2022-09-21T19:27:44;10.60;99.90
1524;DHT22;755;53.658;10.118;2022-09-21T19:37:48;10.50;99.90
1524;DHT22;755;53.658;10.118;2022-09-21T19:47:53;10.70;99.90
1524;DHT22;755;53.658;10.118;2022-09-21T19:57:59;10.80;99.90
1524;DHT22;755;53.658;10.118;2022-09-21T20:08:25;10.50;99.90
1524;DHT22;755;53.658;10.118;2022-09-21T20:18:36;10.50;99.90
1524;DHT22;755;53.658;10.118;2022-09-21T20:28:41;10.30;99.90
1524;DHT22;755;53.658;10.118;2022-09-21T20:38:43;10.20;99.90
1524;DHT22;755;53.658;10.118;2022-09-21T20:48:46;9.90;99.90
1524;DHT22;755;53.658;10.118;2022-09-21T20:58:50;9.90;99.90
1524;DHT22;755;53.658;10.118;2022-09-21T21:08:55;9.90;99.90
1524;DHT22;755;53.658;10.118;2022-09-21T21:18:56;10.00;99.90
1524;DHT22;755;53.658;10.118;2022-09-21T21:29:00;9.80;99.90
1524;DHT22;755;53.658;10.118;2022-09-21T21:39:02;9.50;99.90
1524;DHT22;755;53.658;10.118;2022-09-21T21:49:07;9.40;99.90
1524;DHT22;755;53.658;10.118;2022-09-21T21:59:10;9.10;99.90
1524;DHT22;755;53.658;10.118;2022-09-21T22:09:15;9.10;99.90
1524;DHT22;755;53.658;10.118;2022-09-21T22:19:19;9.00;99.90
1524;DHT22;755;53.658;10.118;2022-09-21T22:29:25;8.90;99.90
1524;DHT22;755;53.658;10.118;2022-09-21T22:39:27;8.90;99.90
1524;DHT22;755;53.658;10.118;2022-09-21T22:49:33;8.80;99.90
1524;DHT22;755;53.658;10.118;2022-09-21T22:59:39;8.60;99.90
1524;DHT22;755;53.658;10.118;2022-09-21T23:09:44;8.40;99.90
1524;DHT22;755;53.658;10.118;2022-09-21T23:19:47;8.40;99.90
1524;DHT22;755;53.658;10.118;2022-09-21T23:29:52;8.30;99.90
1524;DHT22;755;53.658;10.118;2022-09-21T23:39:55;8.10;99.90
1524;DHT22;755;53.658;10.118;2022-09-21T23:50:00;8.00;99.90
